sensor_id;sensor_type;location;lat;lon;timestamp;P1;durP1;ratioP1;P2;durP2;ratioP2
20411;SDS011;10365;52.578;8.138;2022-09-09T00:04:22;10.98;;;6.35;;
20411;SDS011;10365;52.578;8.138;2022-09-09T00:07:01;13.23;;;6.75;;
20411;SDS011;10365;52.578;8.138;2022-09-09T00:09:29;12.82;;;6.78;;
20411;SDS011;10365;52.578;8.138;2022-09-09T00:12:39;12.48;;;6.65;;
20411;SDS011;10365;52.578;8.138;2022-09-09T00:17:19;10.18;;;6.10;;
20411;SDS011;10365;52.578;8.138;2022-09-09T00:22:20;14.07;;;6.50;;
20411;SDS011;10365;52.578;8.138;2022-09-09T00:24:51;10.25;;;6.03;;
20411;SDS011;10365;52.578;8.138;2022-09-09T00:29:47;12.02;;;6.70;;
20411;SDS011;10365;52.578;8.138;2022-09-09T00:32:18;10.07;;;6.32;;
20411;SDS011;10365;52.578;8.138;2022-09-09T00:34:47;18.00;;;6.78;;
20411;SDS011;10365;52.578;8.138;2022-09-09T00:37:12;11.90;;;6.45;;
20411;SDS011;10365;52.578;8.138;2022-09-09T00:39:42;17.38;;;6.38;;
20411;SDS011;10365;52.578;8.138;2022-09-09T00:42:26;12.02;;;5.88;;
20411;SDS011;10365;52.578;8.138;2022-09-09T00:55:33;17.42;;;5.55;;
20411;SDS011;10365;52.578;8.138;2022-09-09T00:58:06;12.70;;;6.25;;
20411;SDS011;10365;52.578;8.138;2022-09-09T01:00:44;11.65;;;6.45;;
20411;SDS011;10365;52.578;8.138;2022-09-09T01:03:31;12.82;;;6.47;;
20411;SDS011;10365;52.578;8.138;2022-09-09T01:11:25;13.93;;;7.28;;
20411;SDS011;10365;52.578;8.138;2022-09-09T01:13:58;19.48;;;7.50;;
20411;SDS011;10365;52.578;8.138;2022-09-09T01:16:28;16.73;;;8.10;;
20411;SDS011;10365;52.578;8.138;2022-09-09T01:18:55;17.20;;;7.65;;
20411;SDS011;10365;52.578;8.138;2022-09-09T01:26:36;17.10;;;7.38;;
20411;SDS011;10365;52.578;8.138;2022-09-09T01:29:14;15.57;;;7.18;;
20411;SDS011;10365;52.578;8.138;2022-09-09T01:34:20;11.85;;;6.70;;
20411;SDS011;10365;52.578;8.138;2022-09-09T01:37:08;19.88;;;7.38;;
20411;SDS011;10365;52.578;8.138;2022-09-09T01:39:36;16.75;;;7.03;;
20411;SDS011;10365;52.578;8.138;2022-09-09T01:42:08;13.73;;;6.90;;
20411;SDS011;10365;52.578;8.138;2022-09-09T01:44:34;12.43;;;6.60;;
20411;SDS011;10365;52.578;8.138;2022-09-09T01:47:01;14.68;;;7.18;;
20411;SDS011;10365;52.578;8.138;2022-09-09T01:49:27;16.35;;;7.40;;
20411;SDS011;10365;52.578;8.138;2022-09-09T01:51:53;11.68;;;6.68;;
20411;SDS011;10365;52.578;8.138;2022-09-09T01:54:26;10.05;;;7.00;;
20411;SDS011;10365;52.578;8.138;2022-09-09T01:57:15;18.88;;;7.60;;
20411;SDS011;10365;52.578;8.138;2022-09-09T01:59:47;10.95;;;7.03;;
20411;SDS011;10365;52.578;8.138;2022-09-09T02:02:18;13.75;;;8.35;;
20411;SDS011;10365;52.578;8.138;2022-09-09T02:05:08;17.80;;;7.60;;
20411;SDS011;10365;52.578;8.138;2022-09-09T02:07:41;18.33;;;7.80;;
20411;SDS011;10365;52.578;8.138;2022-09-09T02:10:21;19.73;;;8.27;;
20411;SDS011;10365;52.578;8.138;2022-09-09T02:13:05;24.15;;;9.15;;
20411;SDS011;10365;52.578;8.138;2022-09-09T02:18:35;19.08;;;9.00;;
20411;SDS011;10365;52.578;8.138;2022-09-09T02:21:04;13.98;;;8.25;;
20411;SDS011;10365;52.578;8.138;2022-09-09T02:23:30;15.68;;;8.05;;
20411;SDS011;10365;52.578;8.138;2022-09-09T02:25:57;18.05;;;9.15;;
20411;SDS011;10365;52.578;8.138;2022-09-09T02:28:25;21.85;;;8.57;;
20411;SDS011;10365;52.578;8.138;2022-09-09T02:30:53;26.45;;;8.10;;
20411;SDS011;10365;52.578;8.138;2022-09-09T02:33:27;16.85;;;8.57;;
20411;SDS011;10365;52.578;8.138;2022-09-09T02:35:53;18.30;;;9.05;;
20411;SDS011;10365;52.578;8.138;2022-09-09T02:38:23;20.73;;;8.43;;
20411;SDS011;10365;52.578;8.138;2022-09-09T02:41:03;20.40;;;9.30;;
20411;SDS011;10365;52.578;8.138;2022-09-09T02:43:33;28.02;;;10.02;;
20411;SDS011;10365;52.578;8.138;2022-09-09T02:46:14;18.52;;;10.13;;
20411;SDS011;10365;52.578;8.138;2022-09-09T02:51:24;20.10;;;9.43;;
20411;SDS011;10365;52.578;8.138;2022-09-09T02:56:31;17.92;;;9.00;;
20411;SDS011;10365;52.578;8.138;2022-09-09T02:59:02;15.00;;;8.02;;
20411;SDS011;10365;52.578;8.138;2022-09-09T03:01:28;17.33;;;7.68;;
20411;SDS011;10365;52.578;8.138;2022-09-09T03:03:54;15.63;;;7.05;;
20411;SDS011;10365;52.578;8.138;2022-09-09T03:06:20;14.82;;;7.82;;
20411;SDS011;10365;52.578;8.138;2022-09-09T03:08:53;11.15;;;6.93;;
20411;SDS011;10365;52.578;8.138;2022-09-09T03:11:23;13.13;;;7.20;;
20411;SDS011;10365;52.578;8.138;2022-09-09T03:13:49;10.55;;;7.30;;
20411;SDS011;10365;52.578;8.138;2022-09-09T03:16:15;19.15;;;6.45;;
20411;SDS011;10365;52.578;8.138;2022-09-09T03:18:44;13.95;;;7.00;;
20411;SDS011;10365;52.578;8.138;2022-09-09T03:21:11;16.55;;;6.50;;
20411;SDS011;10365;52.578;8.138;2022-09-09T03:23:37;14.10;;;6.50;;
20411;SDS011;10365;52.578;8.138;2022-09-09T03:26:03;14.77;;;7.15;;
20411;SDS011;10365;52.578;8.138;2022-09-09T03:28:42;12.95;;;7.60;;
20411;SDS011;10365;52.578;8.138;2022-09-09T03:31:10;14.23;;;7.57;;
20411;SDS011;10365;52.578;8.138;2022-09-09T03:33:38;13.40;;;7.28;;
20411;SDS011;10365;52.578;8.138;2022-09-09T03:36:07;19.63;;;7.65;;
20411;SDS011;10365;52.578;8.138;2022-09-09T03:38:33;14.38;;;8.05;;
20411;SDS011;10365;52.578;8.138;2022-09-09T03:41:00;14.32;;;8.40;;
20411;SDS011;10365;52.578;8.138;2022-09-09T03:43:27;12.38;;;8.05;;
20411;SDS011;10365;52.578;8.138;2022-09-09T03:45:53;13.77;;;9.18;;
20411;SDS011;10365;52.578;8.138;2022-09-09T03:48:24;15.40;;;8.23;;
20411;SDS011;10365;52.578;8.138;2022-09-09T03:50:52;19.45;;;9.38;;
20411;SDS011;10365;52.578;8.138;2022-09-09T03:53:19;18.65;;;9.30;;
20411;SDS011;10365;52.578;8.138;2022-09-09T03:55:46;14.60;;;9.93;;
20411;SDS011;10365;52.578;8.138;2022-09-09T03:58:12;20.92;;;11.43;;
20411;SDS011;10365;52.578;8.138;2022-09-09T04:00:39;20.55;;;11.13;;
20411;SDS011;10365;52.578;8.138;2022-09-09T04:03:11;17.65;;;10.68;;
20411;SDS011;10365;52.578;8.138;2022-09-09T04:05:38;16.90;;;11.35;;
20411;SDS011;10365;52.578;8.138;2022-09-09T04:08:08;21.65;;;12.85;;
20411;SDS011;10365;52.578;8.138;2022-09-09T04:10:34;22.63;;;12.23;;
20411;SDS011;10365;52.578;8.138;2022-09-09T04:13:03;25.55;;;12.52;;
20411;SDS011;10365;52.578;8.138;2022-09-09T04:15:29;23.17;;;12.82;;
20411;SDS011;10365;52.578;8.138;2022-09-09T04:17:55;17.80;;;11.30;;
20411;SDS011;10365;52.578;8.138;2022-09-09T04:20:21;20.50;;;10.88;;
20411;SDS011;10365;52.578;8.138;2022-09-09T04:22:48;18.20;;;10.40;;
20411;SDS011;10365;52.578;8.138;2022-09-09T04:25:13;19.70;;;10.32;;
20411;SDS011;10365;52.578;8.138;2022-09-09T04:27:39;18.55;;;10.52;;
20411;SDS011;10365;52.578;8.138;2022-09-09T04:30:06;16.63;;;9.52;;
20411;SDS011;10365;52.578;8.138;2022-09-09T04:32:33;17.20;;;9.32;;
20411;SDS011;10365;52.578;8.138;2022-09-09T04:34:59;13.48;;;9.30;;
20411;SDS011;10365;52.578;8.138;2022-09-09T04:37:24;15.75;;;9.43;;
20411;SDS011;10365;52.578;8.138;2022-09-09T04:39:50;21.23;;;8.65;;
20411;SDS011;10365;52.578;8.138;2022-09-09T04:42:16;15.88;;;9.20;;
20411;SDS011;10365;52.578;8.138;2022-09-09T04:44:45;12.73;;;8.65;;
20411;SDS011;10365;52.578;8.138;2022-09-09T04:47:11;14.05;;;8.88;;
20411;SDS011;10365;52.578;8.138;2022-09-09T04:49:36;12.65;;;8.55;;
20411;SDS011;10365;52.578;8.138;2022-09-09T04:52:04;14.07;;;8.55;;
20411;SDS011;10365;52.578;8.138;2022-09-09T04:54:32;17.55;;;8.65;;
20411;SDS011;10365;52.578;8.138;2022-09-09T04:56:57;16.92;;;8.77;;
20411;SDS011;10365;52.578;8.138;2022-09-09T04:59:23;17.42;;;8.75;;
20411;SDS011;10365;52.578;8.138;2022-09-09T05:01:53;15.35;;;8.73;;
20411;SDS011;10365;52.578;8.138;2022-09-09T05:04:21;17.88;;;8.93;;
20411;SDS011;10365;52.578;8.138;2022-09-09T05:06:46;13.82;;;7.95;;
20411;SDS011;10365;52.578;8.138;2022-09-09T05:09:12;16.92;;;8.27;;
20411;SDS011;10365;52.578;8.138;2022-09-09T05:11:38;13.27;;;7.88;;
20411;SDS011;10365;52.578;8.138;2022-09-09T05:14:08;12.60;;;7.63;;
20411;SDS011;10365;52.578;8.138;2022-09-09T05:16:36;16.35;;;8.48;;
20411;SDS011;10365;52.578;8.138;2022-09-09T05:19:02;16.38;;;8.50;;
20411;SDS011;10365;52.578;8.138;2022-09-09T05:21:38;18.25;;;7.78;;
20411;SDS011;10365;52.578;8.138;2022-09-09T05:24:05;9.80;;;7.28;;
20411;SDS011;10365;52.578;8.138;2022-09-09T05:26:30;15.63;;;8.05;;
20411;SDS011;10365;52.578;8.138;2022-09-09T05:28:57;15.48;;;7.35;;
20411;SDS011;10365;52.578;8.138;2022-09-09T05:31:24;12.55;;;7.05;;
20411;SDS011;10365;52.578;8.138;2022-09-09T05:33:54;11.05;;;6.68;;
20411;SDS011;10365;52.578;8.138;2022-09-09T05:36:20;9.95;;;6.25;;
20411;SDS011;10365;52.578;8.138;2022-09-09T05:38:48;9.15;;;6.15;;
20411;SDS011;10365;52.578;8.138;2022-09-09T05:41:15;10.50;;;6.18;;
20411;SDS011;10365;52.578;8.138;2022-09-09T05:43:41;13.48;;;6.63;;
20411;SDS011;10365;52.578;8.138;2022-09-09T05:46:11;12.10;;;6.57;;
20411;SDS011;10365;52.578;8.138;2022-09-09T05:48:40;15.40;;;6.63;;
20411;SDS011;10365;52.578;8.138;2022-09-09T05:51:07;10.45;;;5.90;;
20411;SDS011;10365;52.578;8.138;2022-09-09T05:53:33;14.65;;;6.15;;
20411;SDS011;10365;52.578;8.138;2022-09-09T05:56:03;14.60;;;4.95;;
20411;SDS011;10365;52.578;8.138;2022-09-09T05:58:34;9.38;;;5.57;;
20411;SDS011;10365;52.578;8.138;2022-09-09T06:01:07;10.15;;;5.00;;
20411;SDS011;10365;52.578;8.138;2022-09-09T06:03:36;10.05;;;5.28;;
20411;SDS011;10365;52.578;8.138;2022-09-09T06:06:03;9.65;;;5.57;;
20411;SDS011;10365;52.578;8.138;2022-09-09T06:08:33;10.85;;;6.00;;
20411;SDS011;10365;52.578;8.138;2022-09-09T06:11:06;8.15;;;5.70;;
20411;SDS011;10365;52.578;8.138;2022-09-09T06:13:32;12.38;;;6.07;;
20411;SDS011;10365;52.578;8.138;2022-09-09T06:15:58;12.90;;;6.15;;
20411;SDS011;10365;52.578;8.138;2022-09-09T06:18:24;14.93;;;6.72;;
20411;SDS011;10365;52.578;8.138;2022-09-09T06:20:56;10.65;;;6.28;;
20411;SDS011;10365;52.578;8.138;2022-09-09T06:23:21;14.35;;;6.95;;
20411;SDS011;10365;52.578;8.138;2022-09-09T06:25:47;10.30;;;6.25;;
20411;SDS011;10365;52.578;8.138;2022-09-09T06:28:14;11.27;;;6.75;;
20411;SDS011;10365;52.578;8.138;2022-09-09T06:30:40;13.50;;;6.43;;
20411;SDS011;10365;52.578;8.138;2022-09-09T06:33:06;16.05;;;6.15;;
20411;SDS011;10365;52.578;8.138;2022-09-09T06:35:31;16.75;;;6.60;;
20411;SDS011;10365;52.578;8.138;2022-09-09T06:37:57;8.75;;;5.22;;
20411;SDS011;10365;52.578;8.138;2022-09-09T06:40:24;13.82;;;5.63;;
20411;SDS011;10365;52.578;8.138;2022-09-09T06:42:49;11.88;;;4.60;;
20411;SDS011;10365;52.578;8.138;2022-09-09T06:45:23;7.72;;;4.57;;
20411;SDS011;10365;52.578;8.138;2022-09-09T06:47:54;6.65;;;4.35;;
20411;SDS011;10365;52.578;8.138;2022-09-09T06:50:20;9.55;;;4.80;;
20411;SDS011;10365;52.578;8.138;2022-09-09T06:52:48;6.93;;;4.15;;
20411;SDS011;10365;52.578;8.138;2022-09-09T06:55:14;6.18;;;3.90;;
20411;SDS011;10365;52.578;8.138;2022-09-09T06:57:41;5.75;;;3.88;;
20411;SDS011;10365;52.578;8.138;2022-09-09T07:00:20;7.75;;;3.55;;
20411;SDS011;10365;52.578;8.138;2022-09-09T07:02:45;9.80;;;4.25;;
20411;SDS011;10365;52.578;8.138;2022-09-09T07:05:12;7.53;;;3.72;;
20411;SDS011;10365;52.578;8.138;2022-09-09T07:07:40;7.30;;;3.65;;
20411;SDS011;10365;52.578;8.138;2022-09-09T07:10:07;8.75;;;3.80;;
20411;SDS011;10365;52.578;8.138;2022-09-09T07:12:36;7.45;;;3.70;;
20411;SDS011;10365;52.578;8.138;2022-09-09T07:15:02;7.43;;;3.63;;
20411;SDS011;10365;52.578;8.138;2022-09-09T07:17:29;7.95;;;3.35;;
20411;SDS011;10365;52.578;8.138;2022-09-09T07:19:55;7.53;;;3.55;;
20411;SDS011;10365;52.578;8.138;2022-09-09T07:22:22;6.80;;;3.22;;
20411;SDS011;10365;52.578;8.138;2022-09-09T07:24:47;8.30;;;3.00;;
20411;SDS011;10365;52.578;8.138;2022-09-09T07:27:15;7.75;;;3.13;;
20411;SDS011;10365;52.578;8.138;2022-09-09T07:29:41;10.07;;;2.70;;
20411;SDS011;10365;52.578;8.138;2022-09-09T07:32:07;7.50;;;2.90;;
20411;SDS011;10365;52.578;8.138;2022-09-09T07:34:36;6.80;;;2.95;;
20411;SDS011;10365;52.578;8.138;2022-09-09T07:37:01;8.75;;;3.67;;
20411;SDS011;10365;52.578;8.138;2022-09-09T07:39:28;6.10;;;2.80;;
20411;SDS011;10365;52.578;8.138;2022-09-09T07:41:54;9.00;;;2.92;;
20411;SDS011;10365;52.578;8.138;2022-09-09T07:44:22;6.32;;;2.85;;
20411;SDS011;10365;52.578;8.138;2022-09-09T07:46:52;11.50;;;3.10;;
20411;SDS011;10365;52.578;8.138;2022-09-09T07:49:24;6.90;;;3.05;;
20411;SDS011;10365;52.578;8.138;2022-09-09T07:51:50;7.05;;;2.88;;
20411;SDS011;10365;52.578;8.138;2022-09-09T07:54:18;5.53;;;2.65;;
20411;SDS011;10365;52.578;8.138;2022-09-09T07:56:48;5.63;;;3.20;;
20411;SDS011;10365;52.578;8.138;2022-09-09T07:59:14;4.63;;;2.40;;
20411;SDS011;10365;52.578;8.138;2022-09-09T08:01:46;5.82;;;2.33;;
20411;SDS011;10365;52.578;8.138;2022-09-09T08:04:16;9.13;;;2.45;;
20411;SDS011;10365;52.578;8.138;2022-09-09T08:06:47;7.78;;;2.35;;
20411;SDS011;10365;52.578;8.138;2022-09-09T08:09:15;7.78;;;2.50;;
20411;SDS011;10365;52.578;8.138;2022-09-09T08:11:41;8.35;;;2.90;;
20411;SDS011;10365;52.578;8.138;2022-09-09T08:14:07;6.35;;;2.65;;
20411;SDS011;10365;52.578;8.138;2022-09-09T08:16:36;5.30;;;2.00;;
20411;SDS011;10365;52.578;8.138;2022-09-09T08:19:02;8.45;;;2.30;;
20411;SDS011;10365;52.578;8.138;2022-09-09T08:21:28;3.80;;;1.80;;
20411;SDS011;10365;52.578;8.138;2022-09-09T08:23:56;5.97;;;2.08;;
20411;SDS011;10365;52.578;8.138;2022-09-09T08:26:23;4.90;;;1.77;;
20411;SDS011;10365;52.578;8.138;2022-09-09T08:28:49;6.45;;;2.28;;
20411;SDS011;10365;52.578;8.138;2022-09-09T08:31:20;11.00;;;2.70;;
20411;SDS011;10365;52.578;8.138;2022-09-09T08:33:46;7.07;;;2.42;;
20411;SDS011;10365;52.578;8.138;2022-09-09T08:36:18;6.45;;;2.00;;
20411;SDS011;10365;52.578;8.138;2022-09-09T08:38:47;6.82;;;2.35;;
20411;SDS011;10365;52.578;8.138;2022-09-09T08:43:52;9.02;;;2.42;;
20411;SDS011;10365;52.578;8.138;2022-09-09T08:46:37;4.50;;;2.20;;
20411;SDS011;10365;52.578;8.138;2022-09-09T08:51:54;7.25;;;2.40;;
20411;SDS011;10365;52.578;8.138;2022-09-09T08:54:21;8.73;;;2.67;;
20411;SDS011;10365;52.578;8.138;2022-09-09T08:56:47;7.07;;;2.08;;
20411;SDS011;10365;52.578;8.138;2022-09-09T08:59:14;7.97;;;2.90;;
20411;SDS011;10365;52.578;8.138;2022-09-09T09:01:43;5.78;;;2.20;;
20411;SDS011;10365;52.578;8.138;2022-09-09T09:12:00;6.72;;;2.22;;
20411;SDS011;10365;52.578;8.138;2022-09-09T09:14:30;9.70;;;2.45;;
20411;SDS011;10365;52.578;8.138;2022-09-09T09:17:04;5.85;;;1.90;;
20411;SDS011;10365;52.578;8.138;2022-09-09T09:19:32;8.13;;;2.42;;
20411;SDS011;10365;52.578;8.138;2022-09-09T09:24:35;8.55;;;2.40;;
20411;SDS011;10365;52.578;8.138;2022-09-09T09:27:12;8.02;;;2.50;;
20411;SDS011;10365;52.578;8.138;2022-09-09T09:29:38;8.57;;;2.60;;
20411;SDS011;10365;52.578;8.138;2022-09-09T09:32:05;7.82;;;2.97;;
20411;SDS011;10365;52.578;8.138;2022-09-09T09:34:33;11.18;;;2.97;;
20411;SDS011;10365;52.578;8.138;2022-09-09T09:36:59;10.35;;;2.78;;
20411;SDS011;10365;52.578;8.138;2022-09-09T09:39:31;7.57;;;2.30;;
20411;SDS011;10365;52.578;8.138;2022-09-09T09:42:09;12.00;;;2.47;;
20411;SDS011;10365;52.578;8.138;2022-09-09T09:44:36;7.40;;;2.72;;
20411;SDS011;10365;52.578;8.138;2022-09-09T09:47:13;13.48;;;2.47;;
20411;SDS011;10365;52.578;8.138;2022-09-09T09:49:52;10.20;;;3.00;;
20411;SDS011;10365;52.578;8.138;2022-09-09T09:52:23;10.82;;;2.40;;
20411;SDS011;10365;52.578;8.138;2022-09-09T09:54:49;6.45;;;1.95;;
20411;SDS011;10365;52.578;8.138;2022-09-09T09:57:15;8.38;;;1.90;;
20411;SDS011;10365;52.578;8.138;2022-09-09T09:59:43;9.25;;;2.33;;
20411;SDS011;10365;52.578;8.138;2022-09-09T10:02:20;8.13;;;1.85;;
20411;SDS011;10365;52.578;8.138;2022-09-09T10:05:35;7.07;;;1.90;;
20411;SDS011;10365;52.578;8.138;2022-09-09T10:07:45;9.90;;;2.60;;
20411;SDS011;10365;52.578;8.138;2022-09-09T10:10:16;7.95;;;2.58;;
20411;SDS011;10365;52.578;8.138;2022-09-09T10:15:44;10.38;;;3.33;;
20411;SDS011;10365;52.578;8.138;2022-09-09T10:20:51;8.20;;;3.20;;
20411;SDS011;10365;52.578;8.138;2022-09-09T10:28:31;8.75;;;2.53;;
20411;SDS011;10365;52.578;8.138;2022-09-09T10:36:11;11.02;;;3.13;;
20411;SDS011;10365;52.578;8.138;2022-09-09T10:38:41;8.65;;;3.05;;
20411;SDS011;10365;52.578;8.138;2022-09-09T10:48:50;6.47;;;2.78;;
20411;SDS011;10365;52.578;8.138;2022-09-09T10:51:24;7.03;;;3.15;;
20411;SDS011;10365;52.578;8.138;2022-09-09T10:56:23;12.63;;;3.30;;
20411;SDS011;10365;52.578;8.138;2022-09-09T10:59:05;14.20;;;3.90;;
20411;SDS011;10365;52.578;8.138;2022-09-09T11:01:46;8.32;;;3.20;;
20411;SDS011;10365;52.578;8.138;2022-09-09T11:04:20;9.93;;;2.72;;
20411;SDS011;10365;52.578;8.138;2022-09-09T11:06:48;7.43;;;2.15;;
20411;SDS011;10365;52.578;8.138;2022-09-09T11:09:18;10.30;;;2.33;;
20411;SDS011;10365;52.578;8.138;2022-09-09T11:16:52;8.10;;;2.92;;
20411;SDS011;10365;52.578;8.138;2022-09-09T11:21:53;7.88;;;2.10;;
20411;SDS011;10365;52.578;8.138;2022-09-09T11:24:25;6.28;;;1.98;;
20411;SDS011;10365;52.578;8.138;2022-09-09T11:39:44;8.25;;;2.42;;
20411;SDS011;10365;52.578;8.138;2022-09-09T11:44:38;5.63;;;2.00;;
20411;SDS011;10365;52.578;8.138;2022-09-09T11:47:15;6.95;;;2.30;;
20411;SDS011;10365;52.578;8.138;2022-09-09T11:49:41;8.40;;;1.92;;
20411;SDS011;10365;52.578;8.138;2022-09-09T11:52:11;5.50;;;1.67;;
20411;SDS011;10365;52.578;8.138;2022-09-09T11:54:44;6.13;;;1.70;;
20411;SDS011;10365;52.578;8.138;2022-09-09T11:59:55;4.75;;;1.70;;
20411;SDS011;10365;52.578;8.138;2022-09-09T12:02:25;6.65;;;1.65;;
20411;SDS011;10365;52.578;8.138;2022-09-09T12:04:56;4.70;;;1.60;;
20411;SDS011;10365;52.578;8.138;2022-09-09T12:12:43;9.73;;;1.83;;
20411;SDS011;10365;52.578;8.138;2022-09-09T12:23:00;5.72;;;1.65;;
20411;SDS011;10365;52.578;8.138;2022-09-09T12:33:12;3.10;;;1.13;;
20411;SDS011;10365;52.578;8.138;2022-09-09T12:35:38;3.17;;;1.10;;
20411;SDS011;10365;52.578;8.138;2022-09-09T12:38:03;7.07;;;1.25;;
20411;SDS011;10365;52.578;8.138;2022-09-09T12:40:30;5.07;;;1.20;;
20411;SDS011;10365;52.578;8.138;2022-09-09T12:42:58;3.22;;;1.20;;
20411;SDS011;10365;52.578;8.138;2022-09-09T12:45:27;5.60;;;1.15;;
20411;SDS011;10365;52.578;8.138;2022-09-09T12:50:22;3.53;;;1.00;;
20411;SDS011;10365;52.578;8.138;2022-09-09T12:52:51;8.50;;;1.52;;
20411;SDS011;10365;52.578;8.138;2022-09-09T12:55:18;4.22;;;1.13;;
20411;SDS011;10365;52.578;8.138;2022-09-09T12:57:44;4.10;;;1.60;;
20411;SDS011;10365;52.578;8.138;2022-09-09T13:00:14;3.40;;;1.15;;
20411;SDS011;10365;52.578;8.138;2022-09-09T13:02:51;4.45;;;0.82;;
20411;SDS011;10365;52.578;8.138;2022-09-09T13:05:20;2.47;;;0.73;;
20411;SDS011;10365;52.578;8.138;2022-09-09T13:07:46;2.08;;;0.75;;
20411;SDS011;10365;52.578;8.138;2022-09-09T13:10:13;2.30;;;0.90;;
20411;SDS011;10365;52.578;8.138;2022-09-09T13:12:39;5.07;;;0.82;;
20411;SDS011;10365;52.578;8.138;2022-09-09T13:15:05;7.13;;;0.82;;
20411;SDS011;10365;52.578;8.138;2022-09-09T13:17:37;4.20;;;1.05;;
20411;SDS011;10365;52.578;8.138;2022-09-09T13:20:04;2.97;;;0.90;;
20411;SDS011;10365;52.578;8.138;2022-09-09T13:22:33;2.28;;;0.77;;
20411;SDS011;10365;52.578;8.138;2022-09-09T13:27:36;2.97;;;1.13;;
20411;SDS011;10365;52.578;8.138;2022-09-09T13:35:35;4.60;;;1.70;;
20411;SDS011;10365;52.578;8.138;2022-09-09T13:38:08;4.30;;;1.40;;
20411;SDS011;10365;52.578;8.138;2022-09-09T13:40:37;4.47;;;1.58;;
20411;SDS011;10365;52.578;8.138;2022-09-09T13:43:02;7.80;;;2.15;;
20411;SDS011;10365;52.578;8.138;2022-09-09T13:45:28;8.60;;;2.20;;
20411;SDS011;10365;52.578;8.138;2022-09-09T13:47:54;4.93;;;1.73;;
20411;SDS011;10365;52.578;8.138;2022-09-09T13:50:26;6.32;;;2.15;;
20411;SDS011;10365;52.578;8.138;2022-09-09T13:52:53;5.93;;;2.10;;
20411;SDS011;10365;52.578;8.138;2022-09-09T13:55:22;6.70;;;2.30;;
20411;SDS011;10365;52.578;8.138;2022-09-09T13:57:52;7.03;;;2.10;;
20411;SDS011;10365;52.578;8.138;2022-09-09T14:00:18;7.35;;;2.47;;
20411;SDS011;10365;52.578;8.138;2022-09-09T14:02:43;5.60;;;2.08;;
20411;SDS011;10365;52.578;8.138;2022-09-09T14:05:09;5.70;;;2.28;;
20411;SDS011;10365;52.578;8.138;2022-09-09T14:07:36;4.65;;;1.58;;
20411;SDS011;10365;52.578;8.138;2022-09-09T14:10:03;5.15;;;1.80;;
20411;SDS011;10365;52.578;8.138;2022-09-09T14:12:29;6.72;;;2.28;;
20411;SDS011;10365;52.578;8.138;2022-09-09T14:14:54;4.40;;;1.67;;
20411;SDS011;10365;52.578;8.138;2022-09-09T14:17:20;6.55;;;1.98;;
20411;SDS011;10365;52.578;8.138;2022-09-09T14:19:47;5.97;;;2.00;;
20411;SDS011;10365;52.578;8.138;2022-09-09T14:22:12;4.90;;;1.60;;
20411;SDS011;10365;52.578;8.138;2022-09-09T14:24:38;3.28;;;1.70;;
20411;SDS011;10365;52.578;8.138;2022-09-09T14:27:03;6.05;;;1.52;;
20411;SDS011;10365;52.578;8.138;2022-09-09T14:29:29;3.72;;;1.75;;
20411;SDS011;10365;52.578;8.138;2022-09-09T14:31:54;5.18;;;1.38;;
20411;SDS011;10365;52.578;8.138;2022-09-09T14:34:20;3.63;;;1.35;;
20411;SDS011;10365;52.578;8.138;2022-09-09T14:36:45;5.53;;;1.40;;
20411;SDS011;10365;52.578;8.138;2022-09-09T14:39:12;12.70;;;1.20;;
20411;SDS011;10365;52.578;8.138;2022-09-09T14:41:37;4.07;;;1.33;;
20411;SDS011;10365;52.578;8.138;2022-09-09T14:44:03;3.85;;;0.88;;
20411;SDS011;10365;52.578;8.138;2022-09-09T14:46:28;3.13;;;0.95;;
20411;SDS011;10365;52.578;8.138;2022-09-09T14:48:55;5.30;;;1.30;;
20411;SDS011;10365;52.578;8.138;2022-09-09T14:51:22;5.22;;;1.08;;
20411;SDS011;10365;52.578;8.138;2022-09-09T14:53:50;6.65;;;1.00;;
20411;SDS011;10365;52.578;8.138;2022-09-09T14:56:17;3.83;;;1.13;;
20411;SDS011;10365;52.578;8.138;2022-09-09T14:58:43;1.85;;;0.77;;
20411;SDS011;10365;52.578;8.138;2022-09-09T15:01:09;7.40;;;1.25;;
20411;SDS011;10365;52.578;8.138;2022-09-09T15:03:36;3.13;;;0.82;;
20411;SDS011;10365;52.578;8.138;2022-09-09T15:06:21;3.55;;;1.00;;
20411;SDS011;10365;52.578;8.138;2022-09-09T15:08:46;2.97;;;0.90;;
20411;SDS011;10365;52.578;8.138;2022-09-09T15:11:12;10.80;;;1.20;;
20411;SDS011;10365;52.578;8.138;2022-09-09T15:13:39;6.25;;;1.20;;
20411;SDS011;10365;52.578;8.138;2022-09-09T15:16:12;5.15;;;0.88;;
20411;SDS011;10365;52.578;8.138;2022-09-09T15:18:37;8.85;;;0.90;;
20411;SDS011;10365;52.578;8.138;2022-09-09T15:21:09;9.40;;;1.58;;
20411;SDS011;10365;52.578;8.138;2022-09-09T15:23:35;7.88;;;1.23;;
20411;SDS011;10365;52.578;8.138;2022-09-09T15:26:01;4.00;;;1.15;;
20411;SDS011;10365;52.578;8.138;2022-09-09T15:28:26;6.65;;;1.10;;
20411;SDS011;10365;52.578;8.138;2022-09-09T15:30:52;2.30;;;1.10;;
20411;SDS011;10365;52.578;8.138;2022-09-09T15:33:18;4.28;;;1.10;;
20411;SDS011;10365;52.578;8.138;2022-09-09T15:35:44;3.03;;;1.27;;
20411;SDS011;10365;52.578;8.138;2022-09-09T15:38:09;2.03;;;1.20;;
20411;SDS011;10365;52.578;8.138;2022-09-09T15:40:35;2.55;;;1.25;;
20411;SDS011;10365;52.578;8.138;2022-09-09T15:43:00;2.55;;;1.75;;
20411;SDS011;10365;52.578;8.138;2022-09-09T15:45:26;7.32;;;1.42;;
20411;SDS011;10365;52.578;8.138;2022-09-09T15:47:52;1.70;;;1.20;;
20411;SDS011;10365;52.578;8.138;2022-09-09T15:50:18;1.67;;;1.00;;
20411;SDS011;10365;52.578;8.138;2022-09-09T15:52:43;2.05;;;1.38;;
20411;SDS011;10365;52.578;8.138;2022-09-09T15:55:09;2.78;;;1.27;;
20411;SDS011;10365;52.578;8.138;2022-09-09T15:57:35;1.50;;;1.10;;
20411;SDS011;10365;52.578;8.138;2022-09-09T16:00:04;2.10;;;1.17;;
20411;SDS011;10365;52.578;8.138;2022-09-09T16:02:30;2.38;;;1.30;;
20411;SDS011;10365;52.578;8.138;2022-09-09T16:04:55;1.92;;;1.10;;
20411;SDS011;10365;52.578;8.138;2022-09-09T16:07:22;2.55;;;1.23;;
20411;SDS011;10365;52.578;8.138;2022-09-09T16:09:48;2.03;;;1.02;;
20411;SDS011;10365;52.578;8.138;2022-09-09T16:12:16;2.30;;;1.10;;
20411;SDS011;10365;52.578;8.138;2022-09-09T16:14:42;4.68;;;1.05;;
20411;SDS011;10365;52.578;8.138;2022-09-09T16:17:07;3.35;;;1.33;;
20411;SDS011;10365;52.578;8.138;2022-09-09T16:19:33;2.55;;;1.13;;
20411;SDS011;10365;52.578;8.138;2022-09-09T16:21:59;4.18;;;1.10;;
20411;SDS011;10365;52.578;8.138;2022-09-09T16:24:25;1.27;;;0.77;;
20411;SDS011;10365;52.578;8.138;2022-09-09T16:26:51;3.03;;;1.00;;
20411;SDS011;10365;52.578;8.138;2022-09-09T16:29:17;3.95;;;1.10;;
20411;SDS011;10365;52.578;8.138;2022-09-09T16:31:43;1.88;;;1.05;;
20411;SDS011;10365;52.578;8.138;2022-09-09T16:34:09;3.05;;;1.10;;
20411;SDS011;10365;52.578;8.138;2022-09-09T16:36:36;3.65;;;1.30;;
20411;SDS011;10365;52.578;8.138;2022-09-09T16:39:03;2.47;;;1.58;;
20411;SDS011;10365;52.578;8.138;2022-09-09T16:41:29;7.03;;;1.45;;
20411;SDS011;10365;52.578;8.138;2022-09-09T16:43:56;3.20;;;1.40;;
20411;SDS011;10365;52.578;8.138;2022-09-09T16:46:22;8.88;;;1.42;;
20411;SDS011;10365;52.578;8.138;2022-09-09T16:48:49;5.38;;;1.45;;
20411;SDS011;10365;52.578;8.138;2022-09-09T16:51:19;2.53;;;1.30;;
20411;SDS011;10365;52.578;8.138;2022-09-09T16:53:45;3.78;;;1.70;;
20411;SDS011;10365;52.578;8.138;2022-09-09T16:56:14;3.10;;;1.58;;
20411;SDS011;10365;52.578;8.138;2022-09-09T16:58:40;3.60;;;1.30;;
20411;SDS011;10365;52.578;8.138;2022-09-09T17:01:08;3.47;;;1.33;;
20411;SDS011;10365;52.578;8.138;2022-09-09T17:03:34;4.40;;;1.38;;
20411;SDS011;10365;52.578;8.138;2022-09-09T17:05:59;2.17;;;1.10;;
20411;SDS011;10365;52.578;8.138;2022-09-09T17:08:30;2.97;;;1.30;;
20411;SDS011;10365;52.578;8.138;2022-09-09T17:10:56;6.07;;;1.60;;